Time;durP1;ratioP1;P1;durP2;ratioP2;P2;SDS_P1;SDS_P2;PMS_P1;PMS_P2;Temp;Humidity;BMP_temperature;BMP_pressure;BME280_temperature;BME280_humidity;BME280_pressure;Samples;Min_cycle;Max_cycle;Signal;HPM_P1;HPM_P2
2021/06/19 05:04:49;;;;;;;;;13.00;11.25;;;;;;;;6280172;22;47175;-82
2021/06/19 05:07:15;;;;;;;;;12.75;9.75;;;;;;;;6307745;22;46891;-82
2021/06/19 05:09:40;;;;;;;;;13.50;12.75;;;;;;;;6307918;22;47010;-82
2021/06/19 05:12:06;;;;;;;;;15.00;10.75;;;;;;;;6308140;22;46831;-83
2021/06/19 05:14:32;;;;;;;;;10.50;10.50;;;;;;;;6308071;22;46851;-83
2021/06/19 05:16:57;;;;;;;;;10.50;10.25;;;;;;;;6307463;22;46975;-85
2021/06/19 05:19:22;;;;;;;;;10.00;9.00;;;;;;;;6307868;22;46820;-86
2021/06/19 05:21:50;;;;;;;;;11.00;10.25;;;;;;;;6308261;22;47007;-85
2021/06/19 05:24:25;;;;;;;;;16.50;15.50;;;;;;;;6307592;22;47137;-86
2021/06/19 05:26:50;;;;;;;;;18.25;18.00;;;;;;;;6305629;22;47661;-86
2021/06/19 05:29:16;;;;;;;;;20.25;19.25;;;;;;;;6308208;22;46968;-86
2021/06/19 05:31:41;;;;;;;;;20.25;17.25;;;;;;;;6307869;22;46845;-85
2021/06/19 05:34:07;;;;;;;;;19.25;18.75;;;;;;;;6305676;22;48359;-85
2021/06/19 05:36:32;;;;;;;;;21.75;20.00;;;;;;;;6307489;22;46900;-85
2021/06/19 05:38:59;;;;;;;;;28.00;25.00;;;;;;;;6307506;22;46966;-85
2021/06/19 05:41:46;;;;;;;;;;;;;;;;;;;;;
2021/06/19 05:44:19;;;;;;;;;47.50;39.25;;;;;;;;6306917;22;76890;-85
2021/06/19 05:46:44;;;;;;;;;50.50;41.50;;;;;;;;6307367;22;47494;-81
2021/06/19 05:49:10;;;;;;;;;59.50;46.75;;;;;;;;6307805;22;46859;-81
2021/06/19 05:51:35;;;;;;;;;58.75;47.50;;;;;;;;6307819;22;46991;-81
2021/06/19 05:54:02;;;;;;;;;56.50;45.00;;;;;;;;6307164;22;47336;-81
2021/06/19 05:56:27;;;;;;;;;67.00;51.50;;;;;;;;6305322;22;46796;-81
2021/06/19 05:58:53;;;;;;;;;57.50;47.25;;;;;;;;6307313;22;46820;-81
2021/06/19 06:01:18;;;;;;;;;52.25;41.00;;;;;;;;6307989;22;46748;-81
2021/06/19 06:03:44;;;;;;;;;48.25;37.25;;;;;;;;6306707;22;47612;-81
2021/06/19 06:06:09;;;;;;;;;35.25;31.50;;;;;;;;6307608;22;46935;-82
2021/06/19 06:08:34;;;;;;;;;30.75;24.00;;;;;;;;6307091;22;46807;-81
2021/06/19 06:11:00;;;;;;;;;33.50;28.75;;;;;;;;6308043;22;47082;-83
2021/06/19 06:13:26;;;;;;;;;31.50;27.75;;;;;;;;6307459;22;47000;-84
2021/06/19 06:15:51;;;;;;;;;28.25;25.00;;;;;;;;6307765;22;47140;-85
2021/06/19 06:18:16;;;;;;;;;27.50;25.25;;;;;;;;6307399;22;46867;-85
2021/06/19 06:20:42;;;;;;;;;26.25;23.50;;;;;;;;6305307;22;46998;-85
2021/06/19 06:23:07;;;;;;;;;25.00;21.50;;;;;;;;6307164;22;46904;-86
2021/06/19 06:25:32;;;;;;;;;20.75;19.25;;;;;;;;6305949;22;46946;-84
2021/06/19 06:27:58;;;;;;;;;20.50;18.75;;;;;;;;6306686;22;46832;-85
2021/06/19 06:30:23;;;;;;;;;16.50;14.75;;;;;;;;6308922;22;46846;-84
2021/06/19 06:32:49;;;;;;;;;18.75;16.50;;;;;;;;6308841;22;46974;-84
2021/06/19 06:35:14;;;;;;;;;15.50;13.50;;;;;;;;6309327;22;46730;-83
2021/06/19 06:37:40;;;;;;;;;16.00;14.00;;;;;;;;6308634;22;46907;-83
2021/06/19 06:40:06;;;;;;;;;14.00;12.75;;;;;;;;6309062;22;47039;-83
2021/06/19 06:42:32;;;;;;;;;13.25;13.25;;;;;;;;6308570;22;48136;-84
2021/06/19 06:44:57;;;;;;;;;14.50;11.75;;;;;;;;6306803;22;46975;-83
2021/06/19 06:47:23;;;;;;;;;12.25;12.00;;;;;;;;6309036;22;47083;-83
2021/06/19 06:49:48;;;;;;;;;11.75;11.50;;;;;;;;6308994;22;46686;-84
2021/06/19 06:52:13;;;;;;;;;11.00;10.25;;;;;;;;6308464;22;46861;-83
2021/06/19 06:54:38;;;;;;;;;14.50;13.00;;;;;;;;6308476;22;46702;-83
2021/06/19 06:57:07;;;;;;;;;12.00;11.00;;;;;;;;6308964;22;46879;-82
2021/06/19 06:59:32;;;;;;;;;12.00;10.00;;;;;;;;6308899;22;46859;-83
2021/06/19 07:01:58;;;;;;;;;11.50;10.25;;;;;;;;6308762;22;47629;-84
2021/06/19 07:04:23;;;;;;;;;11.00;10.25;;;;;;;;6307978;22;46891;-83
2021/06/19 07:06:48;;;;;;;;;13.75;12.00;;;;;;;;6308911;22;46809;-83
2021/06/19 07:09:14;;;;;;;;;12.75;10.25;;;;;;;;6309175;22;46845;-84
2021/06/19 07:11:39;;;;;;;;;13.25;11.75;;;;;;;;6308596;22;46801;-82
2021/06/19 07:14:04;;;;;;;;;9.50;9.50;;;;;;;;6308988;22;46886;-83
2021/06/19 07:16:30;;;;;;;;;10.75;10.50;;;;;;;;6308588;22;46845;-83
2021/06/19 07:18:57;;;;;;;;;11.50;11.00;;;;;;;;6306743;22;46842;-83
2021/06/19 07:21:22;;;;;;;;;11.25;11.00;;;;;;;;6307821;22;47743;-83
2021/06/19 07:23:47;;;;;;;;;11.25;10.25;;;;;;;;6307938;22;46782;-84
2021/06/19 07:26:13;;;;;;;;;8.00;7.75;;;;;;;;6309153;22;46999;-84
2021/06/19 07:28:38;;;;;;;;;11.00;10.00;;;;;;;;6309087;22;46951;-83
2021/06/19 07:31:04;;;;;;;;;9.50;9.50;;;;;;;;6306120;22;46983;-83
2021/06/19 07:33:29;;;;;;;;;10.25;8.75;;;;;;;;6308510;22;46760;-83
2021/06/19 07:35:54;;;;;;;;;8.25;8.25;;;;;;;;6306261;22;46824;-84
2021/06/19 07:38:21;;;;;;;;;8.25;8.00;;;;;;;;6308416;22;46730;-83
2021/06/19 07:40:46;;;;;;;;;8.25;7.00;;;;;;;;6308726;22;47280;-83
2021/06/19 07:43:11;;;;;;;;;8.00;7.25;;;;;;;;6306484;22;46918;-82
2021/06/19 07:45:37;;;;;;;;;9.00;9.00;;;;;;;;6306060;22;47027;-83
2021/06/19 07:48:02;;;;;;;;;9.50;7.75;;;;;;;;6308754;22;47176;-83
2021/06/19 07:50:27;;;;;;;;;9.25;7.50;;;;;;;;6308604;22;46813;-84
2021/06/19 07:52:53;;;;;;;;;9.25;9.25;;;;;;;;6308274;22;46885;-76
2021/06/19 07:55:19;;;;;;;;;8.75;8.75;;;;;;;;6308477;22;47166;-75
2021/06/19 07:57:44;;;;;;;;;9.25;9.25;;;;;;;;6308291;22;47175;-74
2021/06/19 08:00:10;;;;;;;;;9.00;8.00;;;;;;;;6307698;22;47605;-75
2021/06/19 08:02:36;;;;;;;;;7.50;7.25;;;;;;;;6307393;22;46904;-75
2021/06/19 08:05:01;;;;;;;;;7.25;7.00;;;;;;;;6308797;22;46904;-74
2021/06/19 08:07:26;;;;;;;;;6.50;6.50;;;;;;;;6308370;22;46710;-75
2021/06/19 08:09:52;;;;;;;;;8.50;8.00;;;;;;;;6306435;22;48348;-76
2021/06/19 08:12:17;;;;;;;;;11.00;9.00;;;;;;;;6308279;22;46947;-76
2021/06/19 08:14:42;;;;;;;;;7.00;7.00;;;;;;;;6308578;22;46686;-76
2021/06/19 08:17:20;;;;;;;;;9.00;8.00;;;;;;;;6308691;22;47406;-76
2021/06/19 08:19:45;;;;;;;;;8.00;8.00;;;;;;;;6307983;22;46773;-76
2021/06/19 08:22:11;;;;;;;;;7.50;7.50;;;;;;;;6308236;22;46936;-77
2021/06/19 08:24:37;;;;;;;;;6.75;6.75;;;;;;;;6306185;22;47064;-76
2021/06/19 08:27:03;;;;;;;;;8.50;7.50;;;;;;;;6308603;22;46954;-76
2021/06/19 08:29:28;;;;;;;;;8.75;7.50;;;;;;;;6305912;22;48679;-75
2021/06/19 08:31:53;;;;;;;;;8.00;7.00;;;;;;;;6308342;22;46858;-76
2021/06/19 08:34:19;;;;;;;;;5.75;5.75;;;;;;;;6308669;22;46934;-76
2021/06/19 08:36:44;;;;;;;;;9.75;8.75;;;;;;;;6306497;22;46940;-76
2021/06/19 08:39:10;;;;;;;;;10.00;9.00;;;;;;;;6307810;22;47858;-75
2021/06/19 08:41:37;;;;;;;;;8.25;7.50;;;;;;;;6308357;22;46923;-73
2021/06/19 08:44:02;;;;;;;;;7.25;7.00;;;;;;;;6308249;22;46873;-74
2021/06/19 08:46:28;;;;;;;;;9.25;7.25;;;;;;;;6308709;22;46800;-74
2021/06/19 08:48:56;;;;;;;;;8.25;7.75;;;;;;;;6307559;22;46864;-73
2021/06/19 08:51:23;;;;;;;;;11.75;9.00;;;;;;;;6308519;22;47235;-74
2021/06/19 08:53:51;;;;;;;;;8.00;8.00;;;;;;;;6305984;22;47012;-75
2021/06/19 08:56:18;;;;;;;;;7.75;7.75;;;;;;;;6308405;22;46789;-76
2021/06/19 08:58:44;;;;;;;;;8.75;8.00;;;;;;;;6307749;22;48154;-76
2021/06/19 09:01:09;;;;;;;;;10.00;8.50;;;;;;;;6308538;22;46871;-75
2021/06/19 09:03:35;;;;;;;;;8.50;7.50;;;;;;;;6307467;22;46770;-74
2021/06/19 09:06:38;;;;;;;;;9.00;9.00;;;;;;;;6308288;22;47074;-74
2021/06/19 09:09:15;;;;;;;;;7.25;6.25;;;;;;;;6240865;22;47090;-74
2021/06/19 09:11:51;;;;;;;;;6.75;6.75;;;;;;;;6243426;22;46917;-74
2021/06/19 09:14:21;;;;;;;;;7.50;7.50;;;;;;;;6282422;22;46929;-74
2021/06/19 09:16:59;;;;;;;;;11.25;7.50;;;;;;;;6308322;22;46920;-75
2021/06/19 09:19:29;;;;;;;;;9.75;7.00;;;;;;;;6305770;22;48211;-74
2021/06/19 09:22:10;;;;;;;;;8.50;7.50;;;;;;;;6307986;22;47010;-74
2021/06/19 09:24:48;;;;;;;;;6.75;6.75;;;;;;;;6307889;22;46844;-74
2021/06/19 09:27:29;;;;;;;;;6.50;6.50;;;;;;;;6306576;22;47198;-74
2021/06/19 09:30:13;;;;;;;;;8.25;6.75;;;;;;;;6306037;22;48284;-75
2021/06/19 09:32:45;;;;;;;;;7.75;7.50;;;;;;;;6308112;22;46703;-75
2021/06/19 09:35:12;;;;;;;;;10.00;8.00;;;;;;;;6308104;22;46741;-74
2021/06/19 09:37:38;;;;;;;;;8.25;6.75;;;;;;;;6308187;22;46764;-74
2021/06/19 09:40:18;;;;;;;;;9.75;8.50;;;;;;;;6307898;22;46974;-75
2021/06/19 09:42:43;;;;;;;;;8.25;8.00;;;;;;;;6308062;22;47078;-74
2021/06/19 09:45:16;;;;;;;;;6.25;6.25;;;;;;;;6307753;22;46912;-74
2021/06/19 09:47:42;;;;;;;;;7.75;7.75;;;;;;;;6308215;22;47405;-74
2021/06/19 09:50:08;;;;;;;;;9.00;8.50;;;;;;;;6305759;22;48078;-74
2021/06/19 09:52:33;;;;;;;;;8.25;7.75;;;;;;;;6307674;22;47293;-75
2021/06/19 09:55:00;;;;;;;;;9.00;8.25;;;;;;;;6308068;22;46854;-74
2021/06/19 09:57:39;;;;;;;;;8.00;8.00;;;;;;;;6307604;22;47721;-74
2021/06/19 10:00:04;;;;;;;;;8.00;8.00;;;;;;;;6307753;22;47854;-74
2021/06/19 10:02:30;;;;;;;;;8.00;8.00;;;;;;;;6309036;22;46651;-75
2021/06/19 10:04:56;;;;;;;;;9.25;8.25;;;;;;;;6309067;22;46841;-74
2021/06/19 10:07:23;;;;;;;;;5.75;5.75;;;;;;;;6309257;22;46935;-74
2021/06/19 10:09:49;;;;;;;;;9.25;7.50;;;;;;;;6309065;22;47747;-75
2021/06/19 10:12:18;;;;;;;;;9.00;9.00;;;;;;;;6309424;22;46882;-75
2021/06/19 10:14:44;;;;;;;;;10.75;9.00;;;;;;;;6309087;22;46773;-75
2021/06/19 10:17:10;;;;;;;;;7.50;7.00;;;;;;;;6309284;22;46922;-76
2021/06/19 10:19:36;;;;;;;;;8.75;8.00;;;;;;;;6308981;22;47101;-75
2021/06/19 10:22:01;;;;;;;;;9.00;9.00;;;;;;;;6309195;22;47235;-75
2021/06/19 10:24:26;;;;;;;;;12.00;10.75;;;;;;;;6309165;22;46869;-75
2021/06/19 10:26:54;;;;;;;;;8.50;8.50;;;;;;;;6309567;22;46838;-75
2021/06/19 10:29:23;;;;;;;;;9.25;8.00;;;;;;;;6308844;22;48131;-75
2021/06/19 10:31:50;;;;;;;;;9.50;8.75;;;;;;;;6308914;22;46943;-75
2021/06/19 10:34:22;;;;;;;;;9.25;8.75;;;;;;;;6308761;22;46847;-75
2021/06/19 10:36:48;;;;;;;;;9.75;9.00;;;;;;;;6308984;22;46967;-76
2021/06/19 10:39:29;;;;;;;;;11.00;8.50;;;;;;;;6306434;22;48432;-81
2021/06/19 10:41:54;;;;;;;;;10.00;10.00;;;;;;;;6308402;22;46864;-82
2021/06/19 10:44:38;;;;;;;;;10.00;10.00;;;;;;;;6309359;22;46911;-82
2021/06/19 10:47:04;;;;;;;;;9.50;8.50;;;;;;;;6309094;22;47109;-82
2021/06/19 10:49:29;;;;;;;;;9.50;9.50;;;;;;;;6308087;22;47906;-78
2021/06/19 10:52:13;;;;;;;;;10.75;10.25;;;;;;;;6308362;22;46861;-78
2021/06/19 10:54:45;;;;;;;;;9.75;9.75;;;;;;;;6308799;22;46933;-78
2021/06/19 10:57:11;;;;;;;;;10.25;9.75;;;;;;;;6309527;22;46831;-79
2021/06/19 10:59:36;;;;;;;;;10.75;8.75;;;;;;;;6308512;22;47743;-79
2021/06/19 11:02:03;;;;;;;;;8.50;8.50;;;;;;;;6306735;22;48021;-78
2021/06/19 11:04:40;;;;;;;;;9.00;9.00;;;;;;;;6308078;22;47069;-80
2021/06/19 11:07:07;;;;;;;;;10.25;9.00;;;;;;;;6308660;22;46774;-79
2021/06/19 11:09:42;;;;;;;;;8.25;8.00;;;;;;;;6308886;22;47135;-80
2021/06/19 11:12:26;;;;;;;;;11.00;10.00;;;;;;;;6308437;22;46653;-80
2021/06/19 11:14:52;;;;;;;;;10.00;10.00;;;;;;;;6308965;22;46894;-81
2021/06/19 11:17:20;;;;;;;;;9.75;9.75;;;;;;;;6306791;22;47206;-80
2021/06/19 11:19:48;;;;;;;;;9.00;9.00;;;;;;;;6308502;22;46818;-82
2021/06/19 11:22:31;;;;;;;;;11.25;8.75;;;;;;;;6308611;22;46946;-82
2021/06/19 11:25:16;;;;;;;;;12.25;10.25;;;;;;;;6308885;22;46782;-81
2021/06/19 11:27:58;;;;;;;;;11.00;10.00;;;;;;;;6308862;22;46769;-82
2021/06/19 11:30:36;;;;;;;;;12.00;11.25;;;;;;;;6308588;22;46912;-79
2021/06/19 11:33:19;;;;;;;;;8.75;8.75;;;;;;;;6306605;22;47565;-79
2021/06/19 11:35:45;;;;;;;;;15.50;11.00;;;;;;;;6306609;22;46817;-79
2021/06/19 11:38:11;;;;;;;;;8.50;8.50;;;;;;;;6308352;22;46669;-79
2021/06/19 11:40:37;;;;;;;;;15.25;11.50;;;;;;;;6308634;22;46842;-79
2021/06/19 11:43:03;;;;;;;;;8.00;8.00;;;;;;;;6308908;22;47046;-79
2021/06/19 11:45:29;;;;;;;;;10.25;10.25;;;;;;;;6308408;22;46816;-79
2021/06/19 11:48:04;;;;;;;;;9.25;9.00;;;;;;;;6308525;22;46856;-79
2021/06/19 11:50:34;;;;;;;;;12.00;11.00;;;;;;;;6308040;22;47018;-79
2021/06/19 11:53:18;;;;;;;;;9.25;9.25;;;;;;;;6308233;22;46701;-79
2021/06/19 11:55:43;;;;;;;;;10.50;9.00;;;;;;;;6308398;22;47009;-79
2021/06/19 11:58:08;;;;;;;;;10.50;9.50;;;;;;;;6308813;22;47098;-79
2021/06/19 12:00:51;;;;;;;;;11.75;11.00;;;;;;;;6308409;22;47126;-79
2021/06/19 12:03:25;;;;;;;;;10.75;8.50;;;;;;;;6307979;22;47103;-79
2021/06/19 12:05:51;;;;;;;;;11.00;9.00;;;;;;;;6308080;22;46904;-79
2021/06/19 12:08:25;;;;;;;;;10.50;10.50;;;;;;;;6305883;22;47217;-79
2021/06/19 12:10:51;;;;;;;;;10.25;10.25;;;;;;;;6308482;22;47176;-79
2021/06/19 12:13:16;;;;;;;;;10.25;10.25;;;;;;;;6309054;22;46927;-78
2021/06/19 12:15:50;;;;;;;;;11.25;9.50;;;;;;;;6308928;22;46686;-80
2021/06/19 12:18:19;;;;;;;;;9.75;9.75;;;;;;;;6308730;22;46993;-80
2021/06/19 12:21:04;;;;;;;;;11.75;9.50;;;;;;;;6308299;22;47850;-80
2021/06/19 12:23:35;;;;;;;;;10.00;8.75;;;;;;;;6305995;22;46859;-79
2021/06/19 12:26:07;;;;;;;;;10.50;9.25;;;;;;;;6308631;22;46914;-79
2021/06/19 12:28:33;;;;;;;;;9.50;9.50;;;;;;;;6308567;22;47117;-78
2021/06/19 12:30:59;;;;;;;;;10.00;8.75;;;;;;;;6307970;22;47280;-79
2021/06/19 12:33:28;;;;;;;;;10.00;9.25;;;;;;;;6308235;22;46840;-79
2021/06/19 12:35:54;;;;;;;;;9.25;8.50;;;;;;;;6308373;22;46897;-78
2021/06/19 12:38:20;;;;;;;;;11.75;10.50;;;;;;;;6307522;22;47164;-79
2021/06/19 12:40:45;;;;;;;;;13.25;12.00;;;;;;;;6307791;22;47853;-79
2021/06/19 12:43:11;;;;;;;;;8.25;8.25;;;;;;;;6308284;22;46703;-79
2021/06/19 12:45:41;;;;;;;;;10.25;10.25;;;;;;;;6307967;22;46957;-78
2021/06/19 12:48:27;;;;;;;;;11.25;10.75;;;;;;;;6308370;22;46770;-78
2021/06/19 12:50:54;;;;;;;;;10.25;10.25;;;;;;;;6306980;22;46789;-78
2021/06/19 12:53:30;;;;;;;;;10.50;9.50;;;;;;;;6307974;22;46795;-78
2021/06/19 12:55:55;;;;;;;;;9.50;9.50;;;;;;;;6308356;22;46744;-78
2021/06/19 12:58:22;;;;;;;;;9.00;8.00;;;;;;;;6308646;22;47295;-78
2021/06/19 13:00:54;;;;;;;;;9.00;8.50;;;;;;;;6308412;22;47832;-78
2021/06/19 13:03:24;;;;;;;;;8.50;8.50;;;;;;;;6306533;22;46920;-78
2021/06/19 13:05:51;;;;;;;;;10.75;10.25;;;;;;;;6306505;22;46938;-78
2021/06/19 13:08:17;;;;;;;;;8.50;8.00;;;;;;;;6306964;22;47801;-78
2021/06/19 13:10:42;;;;;;;;;9.00;9.00;;;;;;;;6306557;22;47721;-79
2021/06/19 13:13:08;;;;;;;;;10.75;9.75;;;;;;;;6305437;22;46819;-78
2021/06/19 13:15:34;;;;;;;;;8.75;8.75;;;;;;;;6306306;22;46962;-79
2021/06/19 13:18:00;;;;;;;;;12.00;11.00;;;;;;;;6307763;22;46771;-79
2021/06/19 13:20:28;;;;;;;;;10.00;8.75;;;;;;;;6305941;22;47273;-79
2021/06/19 13:23:08;;;;;;;;;11.00;9.25;;;;;;;;6307770;22;47119;-79
2021/06/19 13:25:52;;;;;;;;;10.75;10.75;;;;;;;;6307478;22;47354;-79
2021/06/19 13:28:17;;;;;;;;;9.75;9.75;;;;;;;;6308296;22;47091;-79
2021/06/19 13:30:43;;;;;;;;;9.50;9.25;;;;;;;;6307616;22;46832;-79
2021/06/19 13:33:08;;;;;;;;;8.75;8.00;;;;;;;;6308142;22;46846;-78
2021/06/19 13:35:49;;;;;;;;;7.75;7.75;;;;;;;;6307890;22;47014;-79
2021/06/19 13:38:15;;;;;;;;;11.25;9.50;;;;;;;;6308000;22;46856;-78
2021/06/19 13:40:40;;;;;;;;;10.25;9.75;;;;;;;;6307328;22;46888;-78
2021/06/19 13:43:06;;;;;;;;;6.00;4.75;;;;;;;;6307540;22;46852;-79
2021/06/19 13:45:31;;;;;;;;;10.00;9.75;;;;;;;;6308044;22;46966;-79
2021/06/19 13:47:57;;;;;;;;;10.75;9.25;;;;;;;;6308280;22;47098;-80
2021/06/19 13:50:22;;;;;;;;;9.00;9.00;;;;;;;;6307952;22;46723;-78
2021/06/19 13:52:49;;;;;;;;;9.75;9.75;;;;;;;;6307413;22;46842;-78
2021/06/19 13:55:16;;;;;;;;;14.25;11.00;;;;;;;;6307707;22;46721;-78
2021/06/19 13:57:41;;;;;;;;;10.25;10.25;;;;;;;;6308009;22;47119;-78
2021/06/19 14:00:07;;;;;;;;;11.00;9.25;;;;;;;;6307811;22;47930;-77
2021/06/19 14:02:32;;;;;;;;;10.00;10.00;;;;;;;;6305673;22;46858;-77
2021/06/19 14:04:58;;;;;;;;;12.00;11.75;;;;;;;;6308250;22;46839;-77
2021/06/19 14:07:24;;;;;;;;;10.25;10.00;;;;;;;;6305570;22;46900;-78
2021/06/19 14:09:50;;;;;;;;;11.25;10.25;;;;;;;;6307843;22;47551;-78
2021/06/19 14:12:15;;;;;;;;;11.00;11.00;;;;;;;;6307782;22;46966;-78
2021/06/19 14:14:40;;;;;;;;;10.50;10.00;;;;;;;;6307737;22;46914;-78
2021/06/19 14:17:06;;;;;;;;;9.75;8.25;;;;;;;;6306228;22;47147;-78
2021/06/19 14:19:31;;;;;;;;;8.25;7.50;;;;;;;;6307392;22;47623;-78
2021/06/19 14:21:56;;;;;;;;;10.75;10.00;;;;;;;;6307774;22;46879;-78
2021/06/19 14:24:22;;;;;;;;;10.00;10.00;;;;;;;;6305600;22;46965;-78
2021/06/19 14:27:07;;;;;;;;;10.50;10.50;;;;;;;;6308028;22;47141;-78
2021/06/19 14:29:33;;;;;;;;;10.50;10.00;;;;;;;;6307494;22;47865;-78
2021/06/19 14:31:58;;;;;;;;;10.25;10.25;;;;;;;;6307719;22;46917;-78
2021/06/19 14:34:24;;;;;;;;;10.75;10.00;;;;;;;;6307693;22;47000;-78
2021/06/19 14:36:50;;;;;;;;;11.50;11.00;;;;;;;;6307675;22;47010;-78
2021/06/19 14:39:16;;;;;;;;;10.50;10.50;;;;;;;;6307410;22;47873;-78
2021/06/19 14:41:41;;;;;;;;;14.00;11.00;;;;;;;;6307536;22;46741;-78
2021/06/19 14:44:06;;;;;;;;;7.00;7.00;;;;;;;;6305726;22;46668;-78
2021/06/19 14:46:32;;;;;;;;;11.75;11.75;;;;;;;;6307998;22;46971;-78
2021/06/19 14:48:57;;;;;;;;;8.75;7.25;;;;;;;;6308892;22;46958;-77
2021/06/19 14:51:22;;;;;;;;;9.00;8.75;;;;;;;;6306441;22;46858;-78
2021/06/19 14:53:48;;;;;;;;;11.00;11.00;;;;;;;;6308788;22;46927;-78
2021/06/19 14:56:14;;;;;;;;;9.00;9.00;;;;;;;;6309178;22;47126;-78
2021/06/19 14:58:39;;;;;;;;;10.25;10.00;;;;;;;;6309253;22;47553;-78
2021/06/19 15:01:05;;;;;;;;;9.00;9.00;;;;;;;;6306986;22;46856;-78
2021/06/19 15:03:30;;;;;;;;;9.75;9.50;;;;;;;;6308724;22;46880;-78
2021/06/19 15:05:56;;;;;;;;;12.00;9.00;;;;;;;;6309244;22;46896;-78
2021/06/19 15:08:22;;;;;;;;;5.75;5.75;;;;;;;;6307683;22;48009;-78
2021/06/19 15:10:47;;;;;;;;;9.00;8.00;;;;;;;;6309071;22;46726;-78
2021/06/19 15:13:13;;;;;;;;;8.25;8.25;;;;;;;;6309272;22;47146;-78
2021/06/19 15:15:38;;;;;;;;;9.00;8.00;;;;;;;;6309344;22;47002;-77
2021/06/19 15:18:04;;;;;;;;;7.75;7.00;;;;;;;;6308870;22;46738;-77
2021/06/19 15:20:29;;;;;;;;;12.00;9.00;;;;;;;;6308913;22;46761;-78
2021/06/19 15:22:55;;;;;;;;;11.00;8.00;;;;;;;;6306811;22;47255;-78
2021/06/19 15:25:20;;;;;;;;;9.25;9.00;;;;;;;;6309036;22;47208;-77
2021/06/19 15:27:45;;;;;;;;;9.50;9.50;;;;;;;;6306657;22;48401;-78
2021/06/19 15:30:11;;;;;;;;;8.75;8.75;;;;;;;;6308868;22;46768;-78
2021/06/19 15:32:37;;;;;;;;;11.25;9.25;;;;;;;;6306616;22;46839;-77
2021/06/19 15:35:04;;;;;;;;;10.00;10.00;;;;;;;;6308998;22;46730;-78
2021/06/19 15:37:30;;;;;;;;;10.00;10.00;;;;;;;;6308465;22;46888;-78
2021/06/19 15:39:55;;;;;;;;;9.00;9.00;;;;;;;;6308546;22;46923;-78
2021/06/19 15:42:21;;;;;;;;;10.25;9.25;;;;;;;;6308733;22;47072;-78
2021/06/19 15:44:46;;;;;;;;;9.00;8.75;;;;;;;;6308967;22;46896;-78
2021/06/19 15:47:12;;;;;;;;;9.75;8.00;;;;;;;;6308752;22;48017;-82
2021/06/19 15:49:38;;;;;;;;;9.50;8.75;;;;;;;;6308505;22;46698;-79
2021/06/19 15:52:05;;;;;;;;;9.00;8.25;;;;;;;;6308432;22;46757;-79
2021/06/19 15:54:31;;;;;;;;;9.25;9.25;;;;;;;;6308233;22;47165;-79
2021/06/19 15:56:56;;;;;;;;;11.50;11.25;;;;;;;;6308520;22;46765;-79
2021/06/19 15:59:21;;;;;;;;;12.75;10.75;;;;;;;;6306461;22;46772;-79
2021/06/19 16:01:47;;;;;;;;;10.00;10.00;;;;;;;;6308892;22;47426;-79
2021/06/19 16:04:12;;;;;;;;;12.50;11.75;;;;;;;;6308350;22;47087;-79
2021/06/19 16:06:38;;;;;;;;;14.75;12.75;;;;;;;;6308695;22;47830;-80
2021/06/19 16:09:03;;;;;;;;;14.50;13.50;;;;;;;;6308272;22;46934;-80
2021/06/19 16:11:29;;;;;;;;;17.50;15.25;;;;;;;;6307736;22;46769;-80
2021/06/19 16:13:54;;;;;;;;;28.50;20.00;;;;;;;;6308378;22;46941;-81
2021/06/19 16:16:20;;;;;;;;;25.00;21.75;;;;;;;;6308155;22;48091;-79
2021/06/19 16:18:45;;;;;;;;;20.25;18.00;;;;;;;;6308175;22;46954;-78
2021/06/19 16:21:11;;;;;;;;;26.50;22.25;;;;;;;;6308161;22;47324;-81
2021/06/19 16:27:07;;;;;;;;;29.00;20.50;;;;;;;;6307783;22;46945;-83
2021/06/19 19:03:28;;;;;;;;;;;;;;;;;;;;;
